메인 페이지
METAR-TAF:

METAR-TAF

공항 :

베를린 테겔 국제공항

베를린, 독일

위도: 52-34N, 경도: 013-19E, 고도: 37m

현재 날씨관측

예보는 17분 전, 09:50시(UTC)에 발표되었습니다.
11kt북북동풍과 남동풍을 오가는
온도 20°C
습도 32%
기압 1026 hPa
시정 10km 이상
1500m 미만 상공 구름 및 적란운 없음

METAR: EDDT 200950Z 08011KT 020V130 CAVOK 20/03 Q1026 NOSIG

시각: 12:07 (10:07 UTC)

예보

예보는 5 시간 7분 전, 05:00시(UTC)에 발표되었습니다.
예보 대상 시간: 20일 06시부터 21일 06시까지 (UTC)
동북동6kt
시정 10km 이상
1500m 미만 상공 구름 및 적란운 없음
전환 중
20일 06시부터 20일 08시까지 (UTC)
11kt
전환 중
20일 17시부터 20일 19시까지 (UTC)
동북동6kt

TAF: EDDT 200500Z 2006/2106 06006KT CAVOK BECMG 2006/2008 09011KT BECMG 2017/2019 07006KT

4,000개 이상의 공항 관측 자료 및 예보 (METAR 및 TAF 보고).

지도상에서 검색 가능한 기상관측소가 노란 점과 빨간 점으로 표시되어 있습니다.

기상관측소 명을 보려면 표시 위로 마우스를 이동하세요.

날씨 관측과 예보를 보려면 클릭하세요.

지도 변경 : 확대하려면 엑스 표시가 있는 녹색 버튼, 축소하려면 빼기 표시가 있는 녹색 버튼, 다음 페이지의 지도를 보려면 녹색 화살표를 클릭하세요.


METAR-TAF: